Time;durP1;ratioP1;P1;durP2;ratioP2;P2;SDS_P1;SDS_P2;PMS_P1;PMS_P2;Temp;Humidity;BMP_temperature;BMP_pressure;BME280_temperature;BME280_humidity;BME280_pressure;Samples;Min_cycle;Max_cycle;Signal;HPM_P1;HPM_P2
2023/06/27 00:01:25;;;;;;;10.40;6.30;;;;;;;;;;106092;1271;23233;-86
2023/06/27 00:03:55;;;;;;;10.40;5.70;;;;;;;;;;105840;1290;24398;-89
2023/06/27 00:06:21;;;;;;;9.90;5.90;;;;;;;;;;105777;1290;24214;-85
2023/06/27 00:09:05;;;;;;;10.80;5.20;;;;;;;;;;105782;1272;22660;-86
2023/06/27 00:13:02;;;;;;;;;;;;;;;;;;;;;
2023/06/27 00:16:12;;;;;;;10.30;5.90;;;;;;;;;;105725;1277;22708;-88
2023/06/27 00:25:48;;;;;;;10.30;5.30;;;;;;;;;;103709;1294;545577;-94
2023/06/27 00:31:49;;;;;;;10.30;5.10;;;;;;;;;;106119;1288;25377;-88
2023/06/27 00:34:44;;;;;;;12.30;5.50;;;;;;;;;;106104;1267;22652;-91
2023/06/27 00:37:33;;;;;;;9.50;5.00;;;;;;;;;;106138;1288;22539;-86
2023/06/27 00:44:43;;;;;;;9.50;5.10;;;;;;;;;;105675;1296;25613;-90
2023/06/27 00:48:10;;;;;;;11.50;5.90;;;;;;;;;;106361;1267;25355;-86
2023/06/27 00:50:46;;;;;;;;;;;;;;;;;;;;;
2023/06/27 01:01:21;;;;;;;;;;;;;;;;;;;;;
2023/06/27 01:09:27;;;;;;;11.80;5.30;;;;;;;;;;105750;1289;22550;-85
2023/06/27 01:12:45;;;;;;;;;;;;;;;;;;;;;
2023/06/27 01:16:09;;;;;;;;;;;;;;;;;;;;;
2023/06/27 01:19:00;;;;;;;10.70;6.20;;;;;;;;;;106630;1279;25287;-87
2023/06/27 01:22:28;;;;;;;;;;;;;;;;;;;;;
2023/06/27 01:48:57;;;;;;;13.50;6.50;;;;;;;;;;105706;1271;25998;-91
2023/06/27 02:08:26;;;;;;;13.60;6.80;;;;;;;;;;106025;1289;23013;-89
2023/06/27 02:11:15;;;;;;;12.20;5.60;;;;;;;;;;105990;1289;25257;-87
2023/06/27 02:17:52;;;;;;;;;;;;;;;;;;;;;
2023/06/27 02:20:22;;;;;;;10.80;4.70;;;;;;;;;;109830;1287;22147;-86
2023/06/27 02:26:31;;;;;;;10.20;4.80;;;;;;;;;;109491;1274;22065;-85
2023/06/27 02:29:01;;;;;;;9.40;4.50;;;;;;;;;;109457;1292;22165;-83
2023/06/27 02:32:22;;;;;;;;;;;;;;;;;;;;;
2023/06/27 02:34:57;;;;;;;9.00;4.40;;;;;;;;;;108892;1274;22908;-84
2023/06/27 02:37:49;;;;;;;8.90;4.20;;;;;;;;;;108883;1297;22423;-85
2023/06/27 02:40:54;;;;;;;12.10;4.40;;;;;;;;;;109208;1287;22143;-84
2023/06/27 02:43:35;;;;;;;10.00;4.10;;;;;;;;;;109775;1287;22305;-84
2023/06/27 02:50:02;;;;;;;7.50;3.50;;;;;;;;;;109354;1293;22750;-86
2023/06/27 03:03:10;;;;;;;7.90;3.30;;;;;;;;;;109719;1286;22100;-84
2023/06/27 03:17:18;;;;;;;;;;;;;;;;;;;;;
2023/06/27 03:27:35;;;;;;;;;;;;;;;;;;;;;
2023/06/27 03:42:11;;;;;;;7.70;3.00;;;;;;;;;;104073;1292;545995;-90
2023/06/27 03:44:42;;;;;;;8.50;3.10;;;;;;;;;;106467;1286;22605;-89
2023/06/27 03:47:27;;;;;;;;;;;;;;;;;;;;;
2023/06/27 03:51:35;;;;;;;9.30;3.40;;;;;;;;;;105963;1292;22628;-88
2023/06/27 03:58:25;;;;;;;;;;;;;;;;;;;;;
2023/06/27 04:09:25;;;;;;;;;;;;;;;;;;;;;
2023/06/27 04:28:50;;;;;;;;;;;;;;;;;;;;;
2023/06/27 04:41:44;;;;;;;7.90;3.20;;;;;;;;;;103866;1294;544961;-87
2023/06/27 04:44:04;;;;;;;10.50;3.80;;;;;;;;;;106183;1288;25335;-90
2023/06/27 04:47:11;;;;;;;9.00;3.50;;;;;;;;;;105780;1294;22873;-90
2023/06/27 04:49:46;;;;;;;8.80;3.30;;;;;;;;;;106001;1289;22802;-87
2023/06/27 04:53:49;;;;;;;8.30;3.10;;;;;;;;;;105833;1274;22542;-88
2023/06/27 05:06:24;;;;;;;9.00;3.20;;;;;;;;;;103896;1295;545437;-91
2023/06/27 05:09:23;;;;;;;8.20;2.80;;;;;;;;;;106146;1288;22708;-86
2023/06/27 05:15:42;;;;;;;8.60;3.10;;;;;;;;;;107075;1259;23808;-88
2023/06/27 05:18:41;;;;;;;7.80;3.20;;;;;;;;;;106629;1262;23121;-87
2023/06/27 05:21:41;;;;;;;8.80;2.90;;;;;;;;;;104575;1276;22523;-86
2023/06/27 05:24:24;;;;;;;10.50;3.20;;;;;;;;;;107052;1276;22520;-86
2023/06/27 05:27:01;;;;;;;10.00;3.40;;;;;;;;;;106952;1276;22526;-86
2023/06/27 05:29:38;;;;;;;10.80;3.10;;;;;;;;;;106971;1276;22531;-81
2023/06/27 05:32:08;;;;;;;11.80;3.50;;;;;;;;;;107043;1276;22490;-88
2023/06/27 05:34:42;;;;;;;9.30;3.20;;;;;;;;;;106997;1269;24222;-90
2023/06/27 05:37:15;;;;;;;9.00;3.60;;;;;;;;;;106903;1276;24244;-90
2023/06/27 05:39:45;;;;;;;14.10;3.50;;;;;;;;;;107025;1259;25386;-86
2023/06/27 05:42:30;;;;;;;;;;;;;;;;;;;;;
2023/06/27 05:45:32;;;;;;;9.80;4.00;;;;;;;;;;106897;1276;22602;-89
2023/06/27 05:48:07;;;;;;;12.20;3.40;;;;;;;;;;107125;1256;24362;-90
2023/06/27 05:51:48;;;;;;;9.30;3.20;;;;;;;;;;106830;1278;22521;-88
2023/06/27 05:54:24;;;;;;;8.90;3.60;;;;;;;;;;106723;1276;22745;-85
2023/06/27 05:57:01;;;;;;;9.30;3.60;;;;;;;;;;107037;1276;25332;-89
2023/06/27 05:59:29;;;;;;;9.20;3.30;;;;;;;;;;107014;1268;25290;-87
2023/06/27 06:01:58;;;;;;;10.40;2.80;;;;;;;;;;107088;1275;22514;-88
2023/06/27 06:04:24;;;;;;;8.20;3.20;;;;;;;;;;106590;1275;23002;-92
2023/06/27 06:06:55;;;;;;;8.60;3.00;;;;;;;;;;106968;1275;25327;-90
2023/06/27 06:09:32;;;;;;;9.90;3.20;;;;;;;;;;107003;1259;22531;-91
2023/06/27 06:12:04;;;;;;;8.80;3.40;;;;;;;;;;106906;1275;22700;-83
2023/06/27 06:19:13;;;;;;;;;;;;;;;;;;;;;
2023/06/27 06:22:36;;;;;;;;;;;;;;;;;;;;;
2023/06/27 06:25:33;;;;;;;8.70;2.80;;;;;;;;;;106592;1282;22543;-89
2023/06/27 06:28:12;;;;;;;7.20;2.60;;;;;;;;;;106382;1268;26452;-86
2023/06/27 06:34:32;;;;;;;11.20;3.00;;;;;;;;;;106460;1282;22574;-89
2023/06/27 06:37:07;;;;;;;8.70;2.60;;;;;;;;;;106468;1282;22498;-89
2023/06/27 06:40:10;;;;;;;8.20;2.90;;;;;;;;;;106323;1265;26780;-89
2023/06/27 06:42:36;;;;;;;9.60;2.80;;;;;;;;;;106511;1282;22537;-89
2023/06/27 06:45:28;;;;;;;8.10;2.90;;;;;;;;;;106507;1282;25412;-93
2023/06/27 06:47:55;;;;;;;8.50;2.50;;;;;;;;;;106835;1275;22522;-85
2023/06/27 06:50:22;;;;;;;7.40;2.80;;;;;;;;;;107565;1257;24190;-85
2023/06/27 06:52:57;;;;;;;6.40;2.60;;;;;;;;;;107374;1266;25226;-88
2023/06/27 06:56:35;;;;;;;6.80;2.40;;;;;;;;;;106916;1265;22663;-89
2023/06/27 07:03:32;;;;;;;;;;;;;;;;;;;;;
2023/06/27 07:10:14;;;;;;;8.10;2.40;;;;;;;;;;105675;1289;22799;-93
2023/06/27 07:12:56;;;;;;;;;;;;;;;;;;;;;
2023/06/27 07:15:35;;;;;;;8.40;2.10;;;;;;;;;;105675;1293;22785;-88
2023/06/27 07:18:05;;;;;;;6.50;2.10;;;;;;;;;;105787;1294;22588;-88
2023/06/27 07:20:34;;;;;;;10.20;2.50;;;;;;;;;;105849;1293;22793;-87
2023/06/27 07:23:04;;;;;;;10.30;2.30;;;;;;;;;;105735;1294;22553;-92
2023/06/27 07:25:35;;;;;;;8.00;2.20;;;;;;;;;;105491;1294;22664;-84
2023/06/27 07:28:17;;;;;;;10.40;2.10;;;;;;;;;;105957;1290;25907;-90
2023/06/27 07:30:56;;;;;;;7.40;2.40;;;;;;;;;;105990;1289;24978;-89
2023/06/27 07:33:47;;;;;;;8.90;2.40;;;;;;;;;;106317;1269;25483;-89
2023/06/27 07:36:28;;;;;;;8.40;2.30;;;;;;;;;;106578;1282;22664;-86
2023/06/27 07:39:07;;;;;;;8.70;2.40;;;;;;;;;;106489;1282;23878;-86
2023/06/27 07:41:44;;;;;;;12.70;2.60;;;;;;;;;;106504;1282;23000;-84
2023/06/27 07:44:13;;;;;;;8.30;2.30;;;;;;;;;;107014;1266;22668;-86
2023/06/27 07:46:43;;;;;;;9.60;2.80;;;;;;;;;;107303;1275;22534;-88
2023/06/27 07:49:10;;;;;;;8.10;2.40;;;;;;;;;;107176;1276;24237;-84
2023/06/27 07:51:45;;;;;;;9.60;2.80;;;;;;;;;;106937;1269;22790;-86
2023/06/27 07:54:39;;;;;;;8.10;2.70;;;;;;;;;;107338;1259;25309;-89
2023/06/27 07:58:09;;;;;;;8.20;2.70;;;;;;;;;;107093;1273;22543;-86
2023/06/27 08:00:55;;;;;;;9.30;2.40;;;;;;;;;;107106;1273;23912;-86
2023/06/27 08:03:30;;;;;;;8.50;2.70;;;;;;;;;;107143;1256;25316;-87
2023/06/27 08:06:18;;;;;;;7.10;2.50;;;;;;;;;;106975;1274;23153;-90
2023/06/27 08:08:53;;;;;;;6.80;2.40;;;;;;;;;;106834;1276;25341;-82
2023/06/27 08:11:31;;;;;;;7.90;2.50;;;;;;;;;;107344;1269;22780;-89
2023/06/27 08:14:31;;;;;;;7.70;2.70;;;;;;;;;;107176;1256;22517;-91
2023/06/27 08:17:18;;;;;;;;;;;;;;;;;;;;;
2023/06/27 08:20:02;;;;;;;6.30;2.20;;;;;;;;;;106846;1271;22704;-90
2023/06/27 08:22:33;;;;;;;9.90;2.40;;;;;;;;;;107106;1272;23176;-87
2023/06/27 08:25:24;;;;;;;7.00;2.40;;;;;;;;;;106957;1260;24275;-86
2023/06/27 08:28:40;;;;;;;;;;;;;;;;;;;;;
2023/06/27 08:31:47;;;;;;;;;;;;;;;;;;;;;
2023/06/27 08:34:36;;;;;;;7.10;2.90;;;;;;;;;;107009;1266;25536;-86
2023/06/27 08:37:17;;;;;;;8.10;3.50;;;;;;;;;;107000;1269;24711;-86
2023/06/27 08:39:57;;;;;;;9.70;2.90;;;;;;;;;;107025;1269;22523;-88
2023/06/27 08:42:33;;;;;;;8.20;3.30;;;;;;;;;;107027;1272;22530;-86
2023/06/27 08:45:18;;;;;;;7.90;3.50;;;;;;;;;;106921;1259;24296;-88
2023/06/27 08:48:14;;;;;;;9.10;4.10;;;;;;;;;;106863;1275;23908;-86
2023/06/27 08:50:48;;;;;;;10.50;4.40;;;;;;;;;;106886;1275;24197;-89
2023/06/27 08:54:04;;;;;;;8.90;4.10;;;;;;;;;;107009;1260;22532;-86
2023/06/27 08:56:42;;;;;;;7.80;3.50;;;;;;;;;;106901;1269;25281;-89
2023/06/27 08:59:51;;;;;;;8.20;3.20;;;;;;;;;;107005;1268;24359;-87
2023/06/27 09:03:11;;;;;;;;;;;;;;;;;;;;;
2023/06/27 09:06:03;;;;;;;;;;;;;;;;;;;;;
2023/06/27 09:09:18;;;;;;;8.10;3.00;;;;;;;;;;106896;1273;22530;-88
2023/06/27 09:11:50;;;;;;;10.20;3.30;;;;;;;;;;106560;1279;25464;-89
2023/06/27 09:14:22;;;;;;;8.10;4.20;;;;;;;;;;110051;1263;22341;-87
2023/06/27 09:17:08;;;;;;;9.10;3.50;;;;;;;;;;110049;1273;21697;-85
2023/06/27 09:19:36;;;;;;;9.40;3.40;;;;;;;;;;110025;1273;22239;-87
2023/06/27 09:22:07;;;;;;;8.30;3.40;;;;;;;;;;110055;1276;22168;-87
2023/06/27 09:24:40;;;;;;;11.90;3.60;;;;;;;;;;110109;1261;22349;-87
2023/06/27 09:27:27;;;;;;;9.20;3.80;;;;;;;;;;110003;1281;23002;-87
2023/06/27 09:30:11;;;;;;;9.20;3.40;;;;;;;;;;110086;1280;22176;-87
2023/06/27 09:32:56;;;;;;;8.20;2.70;;;;;;;;;;110045;1274;22446;-88
2023/06/27 09:35:24;;;;;;;7.20;2.60;;;;;;;;;;110097;1259;23051;-86
2023/06/27 09:37:51;;;;;;;5.40;2.70;;;;;;;;;;110344;1276;22206;-86
2023/06/27 09:40:30;;;;;;;8.70;2.80;;;;;;;;;;110382;1276;22157;-85
2023/06/27 09:43:00;;;;;;;8.10;2.70;;;;;;;;;;110303;1274;22138;-86
2023/06/27 09:45:40;;;;;;;6.70;2.20;;;;;;;;;;110598;1257;22330;-88
2023/06/27 09:48:18;;;;;;;7.70;2.50;;;;;;;;;;110475;1276;22113;-87
2023/06/27 09:50:45;;;;;;;5.60;1.90;;;;;;;;;;110444;1276;22885;-86
2023/06/27 09:53:15;;;;;;;7.40;2.00;;;;;;;;;;110308;1276;22081;-85
2023/06/27 09:55:57;;;;;;;9.20;2.00;;;;;;;;;;110516;1256;22184;-85
2023/06/27 09:58:33;;;;;;;9.40;1.90;;;;;;;;;;110279;1276;22112;-84
2023/06/27 10:01:06;;;;;;;6.90;2.00;;;;;;;;;;110291;1276;22129;-84
2023/06/27 10:03:33;;;;;;;6.00;1.80;;;;;;;;;;110278;1276;22095;-80
2023/06/27 10:06:01;;;;;;;6.70;1.60;;;;;;;;;;110365;1261;22201;-82
2023/06/27 10:08:32;;;;;;;5.20;1.80;;;;;;;;;;110275;1276;22125;-85
2023/06/27 10:10:59;;;;;;;5.80;1.50;;;;;;;;;;110412;1276;22103;-84
2023/06/27 10:13:26;;;;;;;5.00;1.70;;;;;;;;;;110383;1276;22091;-86
2023/06/27 10:15:56;;;;;;;7.60;1.70;;;;;;;;;;110458;1259;22132;-84
2023/06/27 10:18:23;;;;;;;6.40;1.90;;;;;;;;;;110403;1276;22909;-85
2023/06/27 10:20:54;;;;;;;6.70;2.00;;;;;;;;;;110402;1276;22042;-85
2023/06/27 10:23:21;;;;;;;7.60;2.10;;;;;;;;;;110419;1276;22109;-87
2023/06/27 10:25:48;;;;;;;8.00;1.40;;;;;;;;;;110509;1259;22200;-88
2023/06/27 10:28:15;;;;;;;6.40;1.50;;;;;;;;;;110394;1276;22728;-88
2023/06/27 10:30:46;;;;;;;10.40;2.00;;;;;;;;;;110373;1276;21988;-88
2023/06/27 10:33:21;;;;;;;5.50;1.50;;;;;;;;;;110476;1276;22761;-83
2023/06/27 10:36:04;;;;;;;10.60;1.60;;;;;;;;;;110454;1257;22906;-83
2023/06/27 10:38:35;;;;;;;5.90;1.60;;;;;;;;;;110633;1275;22151;-85
2023/06/27 10:41:04;;;;;;;5.80;1.60;;;;;;;;;;110485;1276;23092;-86
2023/06/27 10:43:46;;;;;;;5.20;1.70;;;;;;;;;;110483;1276;22107;-84
2023/06/27 10:46:20;;;;;;;6.20;1.60;;;;;;;;;;110537;1254;22130;-84
2023/06/27 10:48:57;;;;;;;6.00;1.70;;;;;;;;;;110349;1276;22136;-82
2023/06/27 10:51:33;;;;;;;6.10;1.20;;;;;;;;;;110305;1276;22131;-84
2023/06/27 10:54:08;;;;;;;6.70;1.40;;;;;;;;;;110333;1276;22154;-80
2023/06/27 10:57:03;;;;;;;5.80;1.70;;;;;;;;;;110443;1257;22765;-84
2023/06/27 10:59:34;;;;;;;5.30;1.50;;;;;;;;;;110375;1276;22192;-85
2023/06/27 11:02:07;;;;;;;6.00;1.30;;;;;;;;;;110252;1276;22108;-81
2023/06/27 11:04:41;;;;;;;4.90;1.40;;;;;;;;;;110474;1276;22749;-88
2023/06/27 11:07:10;;;;;;;7.10;1.50;;;;;;;;;;110439;1258;22194;-85
2023/06/27 11:09:39;;;;;;;5.30;1.50;;;;;;;;;;110491;1276;22107;-85
2023/06/27 11:12:14;;;;;;;6.00;1.30;;;;;;;;;;110342;1276;22165;-82
2023/06/27 11:14:45;;;;;;;7.60;1.30;;;;;;;;;;110266;1276;22973;-87
2023/06/27 11:17:15;;;;;;;8.70;1.70;;;;;;;;;;110389;1259;22917;-86
2023/06/27 11:19:45;;;;;;;7.50;1.40;;;;;;;;;;110325;1276;22776;-85
2023/06/27 11:22:12;;;;;;;5.90;1.70;;;;;;;;;;110353;1276;22128;-85
2023/06/27 11:24:41;;;;;;;6.90;1.70;;;;;;;;;;110347;1276;22755;-85
2023/06/27 11:27:08;;;;;;;4.60;1.30;;;;;;;;;;110381;1260;22107;-84
2023/06/27 11:29:35;;;;;;;6.70;1.50;;;;;;;;;;110538;1276;22724;-88
2023/06/27 11:32:11;;;;;;;5.00;1.40;;;;;;;;;;110239;1276;22574;-87
2023/06/27 11:34:42;;;;;;;5.60;1.40;;;;;;;;;;110344;1276;22099;-85
2023/06/27 11:37:13;;;;;;;5.80;1.60;;;;;;;;;;110515;1260;22152;-86
2023/06/27 11:39:53;;;;;;;7.10;1.30;;;;;;;;;;110366;1276;22206;-85
2023/06/27 11:42:35;;;;;;;6.90;1.00;;;;;;;;;;110509;1276;22095;-83
2023/06/27 11:45:10;;;;;;;6.60;1.40;;;;;;;;;;110362;1276;22133;-84
2023/06/27 11:47:37;;;;;;;5.90;1.30;;;;;;;;;;110392;1257;22153;-84
2023/06/27 11:50:09;;;;;;;4.20;1.20;;;;;;;;;;110243;1277;22110;-84
2023/06/27 11:52:36;;;;;;;5.80;1.30;;;;;;;;;;110315;1276;22756;-87
2023/06/27 11:55:12;;;;;;;6.90;1.00;;;;;;;;;;110431;1278;22311;-86
2023/06/27 11:57:55;;;;;;;;;;;;;;;;;;;;;
2023/06/27 12:00:25;;;;;;;7.00;1.30;;;;;;;;;;110353;1277;22123;-82
2023/06/27 12:02:53;;;;;;;6.10;1.10;;;;;;;;;;110188;1269;22076;-88
2023/06/27 12:05:22;;;;;;;6.30;1.30;;;;;;;;;;110349;1278;22233;-83
2023/06/27 12:07:57;;;;;;;7.10;0.80;;;;;;;;;;110434;1260;22106;-85
2023/06/27 12:10:33;;;;;;;5.80;1.10;;;;;;;;;;110296;1278;22714;-86
2023/06/27 12:13:02;;;;;;;8.80;1.20;;;;;;;;;;110325;1278;22582;-86
2023/06/27 12:15:29;;;;;;;8.60;1.20;;;;;;;;;;110191;1277;22082;-85
2023/06/27 12:17:59;;;;;;;5.90;1.30;;;;;;;;;;110552;1254;22203;-88
2023/06/27 12:20:27;;;;;;;4.90;1.00;;;;;;;;;;110340;1277;22175;-86
2023/06/27 12:22:54;;;;;;;3.40;0.90;;;;;;;;;;110455;1277;22745;-85
2023/06/27 12:25:26;;;;;;;6.40;1.00;;;;;;;;;;110429;1277;22118;-87
2023/06/27 12:27:56;;;;;;;3.60;1.00;;;;;;;;;;110238;1253;23221;-85
2023/06/27 12:30:28;;;;;;;4.50;1.30;;;;;;;;;;110313;1277;22186;-87
2023/06/27 12:32:58;;;;;;;4.40;1.00;;;;;;;;;;110465;1277;22820;-85
2023/06/27 12:35:34;;;;;;;5.60;1.40;;;;;;;;;;110196;1277;22120;-85
2023/06/27 12:38:01;;;;;;;3.70;1.10;;;;;;;;;;110510;1253;22053;-84
2023/06/27 12:40:48;;;;;;;3.90;1.10;;;;;;;;;;110336;1277;22307;-86
2023/06/27 12:43:18;;;;;;;4.40;0.80;;;;;;;;;;110292;1278;22108;-84
2023/06/27 12:45:58;;;;;;;5.70;0.90;;;;;;;;;;110213;1277;22108;-84
2023/06/27 12:48:33;;;;;;;4.60;1.00;;;;;;;;;;110214;1257;22247;-85
2023/06/27 12:51:09;;;;;;;7.60;1.30;;;;;;;;;;110235;1277;22139;-84
2023/06/27 12:54:15;;;;;;;4.50;1.00;;;;;;;;;;110236;1277;22105;-83
2023/06/27 12:57:30;;;;;;;5.20;1.20;;;;;;;;;;110238;1277;22208;-86
2023/06/27 13:00:03;;;;;;;5.80;1.20;;;;;;;;;;110634;1260;22616;-85
2023/06/27 13:02:43;;;;;;;6.20;1.30;;;;;;;;;;110165;1277;22117;-85
2023/06/27 13:05:21;;;;;;;4.90;1.30;;;;;;;;;;110403;1278;21991;-83
2023/06/27 13:08:59;;;;;;;5.40;1.00;;;;;;;;;;110418;1276;22340;-85
2023/06/27 13:11:08;;;;;;;6.10;1.00;;;;;;;;;;110384;1265;22825;-85
2023/06/27 13:13:47;;;;;;;4.90;1.20;;;;;;;;;;110245;1272;22376;-85
2023/06/27 13:16:30;;;;;;;4.50;1.00;;;;;;;;;;110212;1277;22164;-85
2023/06/27 13:19:21;;;;;;;5.30;1.20;;;;;;;;;;110220;1277;22102;-84
2023/06/27 13:21:53;;;;;;;8.20;1.70;;;;;;;;;;110662;1260;23145;-85
2023/06/27 13:24:20;;;;;;;4.20;1.30;;;;;;;;;;110138;1277;22119;-86
2023/06/27 13:26:47;;;;;;;6.30;1.20;;;;;;;;;;110434;1277;22012;-85
2023/06/27 13:29:17;;;;;;;6.60;1.20;;;;;;;;;;110443;1277;22100;-85
2023/06/27 13:31:44;;;;;;;4.30;1.20;;;;;;;;;;110337;1259;22136;-83
2023/06/27 13:34:11;;;;;;;6.40;1.30;;;;;;;;;;110208;1278;22186;-84
2023/06/27 13:36:41;;;;;;;3.20;1.10;;;;;;;;;;110224;1278;22116;-87
2023/06/27 13:39:08;;;;;;;5.70;1.10;;;;;;;;;;110424;1277;22818;-86
2023/06/27 13:41:35;;;;;;;4.30;1.10;;;;;;;;;;110321;1260;22133;-86
2023/06/27 13:44:02;;;;;;;3.80;1.00;;;;;;;;;;110210;1278;22749;-85
2023/06/27 13:46:29;;;;;;;4.70;1.00;;;;;;;;;;110138;1278;22140;-88
2023/06/27 13:48:57;;;;;;;4.50;0.90;;;;;;;;;;110115;1278;22146;-86
2023/06/27 13:51:24;;;;;;;5.50;0.90;;;;;;;;;;110200;1257;22125;-86
2023/06/27 13:53:51;;;;;;;5.20;1.00;;;;;;;;;;110182;1278;22045;-87
2023/06/27 13:56:18;;;;;;;7.30;1.20;;;;;;;;;;110382;1278;22090;-83
2023/06/27 13:58:48;;;;;;;4.20;1.10;;;;;;;;;;110388;1278;22139;-83
2023/06/27 14:01:15;;;;;;;5.90;0.80;;;;;;;;;;110193;1258;22581;-82
2023/06/27 14:03:45;;;;;;;3.20;0.90;;;;;;;;;;110391;1278;22826;-83
2023/06/27 14:06:14;;;;;;;5.70;0.90;;;;;;;;;;110165;1278;22988;-82
2023/06/27 14:08:41;;;;;;;3.10;0.80;;;;;;;;;;110134;1278;22068;-82
2023/06/27 14:11:11;;;;;;;3.70;0.90;;;;;;;;;;110166;1257;22809;-86
2023/06/27 14:13:41;;;;;;;4.10;0.90;;;;;;;;;;110176;1278;22737;-89
2023/06/27 14:16:09;;;;;;;4.40;1.10;;;;;;;;;;110407;1278;21995;-86
2023/06/27 14:18:36;;;;;;;5.30;1.10;;;;;;;;;;110074;1278;22172;-85
2023/06/27 14:21:08;;;;;;;7.40;1.20;;;;;;;;;;110202;1256;22829;-85
2023/06/27 14:23:36;;;;;;;3.20;0.80;;;;;;;;;;110185;1278;22122;-83
2023/06/27 14:26:04;;;;;;;2.50;0.90;;;;;;;;;;110130;1278;22098;-83
2023/06/27 14:28:48;;;;;;;6.80;1.20;;;;;;;;;;110213;1278;22119;-84
2023/06/27 14:31:18;;;;;;;4.10;1.00;;;;;;;;;;110415;1256;23033;-87
2023/06/27 14:33:49;;;;;;;4.90;0.90;;;;;;;;;;110403;1278;22170;-86
2023/06/27 14:36:16;;;;;;;2.30;0.90;;;;;;;;;;110176;1278;22243;-87
2023/06/27 14:38:46;;;;;;;3.60;1.10;;;;;;;;;;110417;1278;22194;-84
2023/06/27 14:41:13;;;;;;;5.70;0.90;;;;;;;;;;110212;1257;22965;-86
2023/06/27 14:43:47;;;;;;;2.60;0.80;;;;;;;;;;110177;1278;22692;-82
2023/06/27 14:46:14;;;;;;;3.50;0.70;;;;;;;;;;110177;1278;22815;-88
2023/06/27 14:48:54;;;;;;;2.60;0.70;;;;;;;;;;110109;1279;22537;-88
2023/06/27 14:51:31;;;;;;;2.10;0.70;;;;;;;;;;110159;1255;23014;-93
2023/06/27 14:53:59;;;;;;;2.70;0.90;;;;;;;;;;110346;1263;22126;-89
2023/06/27 14:56:32;;;;;;;3.80;1.00;;;;;;;;;;110349;1278;22066;-85
2023/06/27 14:59:07;;;;;;;2.90;1.00;;;;;;;;;;110348;1278;22151;-90
2023/06/27 15:01:35;;;;;;;5.30;1.20;;;;;;;;;;110101;1257;22143;-82
2023/06/27 15:04:12;;;;;;;3.40;1.20;;;;;;;;;;110075;1279;22974;-86
2023/06/27 15:06:44;;;;;;;4.80;1.10;;;;;;;;;;110169;1279;22143;-83
2023/06/27 15:09:16;;;;;;;5.20;1.40;;;;;;;;;;110178;1279;22107;-89
2023/06/27 15:11:44;;;;;;;3.50;1.20;;;;;;;;;;110115;1256;22360;-87
2023/06/27 15:14:11;;;;;;;6.40;1.30;;;;;;;;;;110116;1275;22084;-88
2023/06/27 15:16:43;;;;;;;5.80;1.30;;;;;;;;;;110071;1279;22201;-90
2023/06/27 15:19:16;;;;;;;6.50;1.10;;;;;;;;;;110185;1278;22897;-90
2023/06/27 15:21:44;;;;;;;3.50;0.80;;;;;;;;;;110102;1278;22118;-86
2023/06/27 15:24:12;;;;;;;3.30;1.10;;;;;;;;;;110463;1257;22145;-89
2023/06/27 15:26:39;;;;;;;6.70;1.30;;;;;;;;;;110347;1278;22119;-89
2023/06/27 15:29:10;;;;;;;5.40;1.20;;;;;;;;;;110175;1278;22117;-89
2023/06/27 15:31:43;;;;;;;3.00;1.20;;;;;;;;;;110172;1278;22188;-83
2023/06/27 15:34:10;;;;;;;5.20;1.10;;;;;;;;;;110504;1262;22134;-91
2023/06/27 15:36:39;;;;;;;4.00;1.00;;;;;;;;;;110158;1278;22102;-90
2023/06/27 15:39:08;;;;;;;4.20;1.00;;;;;;;;;;110133;1279;21935;-88
2023/06/27 15:41:36;;;;;;;4.60;0.90;;;;;;;;;;110346;1278;22572;-88
2023/06/27 15:44:04;;;;;;;2.30;1.00;;;;;;;;;;110380;1259;22270;-92
2023/06/27 15:46:35;;;;;;;3.70;0.80;;;;;;;;;;110270;1279;22094;-90
2023/06/27 15:49:04;;;;;;;2.80;1.30;;;;;;;;;;110110;1279;22206;-91
2023/06/27 15:51:35;;;;;;;3.20;1.30;;;;;;;;;;110213;1279;22850;-83
2023/06/27 15:54:04;;;;;;;3.70;1.10;;;;;;;;;;110327;1260;22075;-87
2023/06/27 15:56:36;;;;;;;2.80;0.90;;;;;;;;;;110180;1279;22048;-90
2023/06/27 15:59:07;;;;;;;3.90;1.10;;;;;;;;;;110144;1279;22829;-89
2023/06/27 16:01:36;;;;;;;3.50;1.10;;;;;;;;;;110308;1279;22429;-88
2023/06/27 16:04:04;;;;;;;3.70;1.20;;;;;;;;;;110388;1258;22164;-89
2023/06/27 16:06:35;;;;;;;4.30;0.90;;;;;;;;;;110169;1279;22204;-90
2023/06/27 16:09:05;;;;;;;3.60;1.00;;;;;;;;;;110320;1279;22147;-90
2023/06/27 16:11:35;;;;;;;3.20;0.90;;;;;;;;;;110294;1279;22103;-88
2023/06/27 16:14:04;;;;;;;2.50;1.10;;;;;;;;;;110308;1259;22905;-91
2023/06/27 16:16:37;;;;;;;3.50;1.20;;;;;;;;;;110294;1279;22077;-88
2023/06/27 16:19:06;;;;;;;2.70;1.00;;;;;;;;;;110176;1270;22129;-81
2023/06/27 16:21:42;;;;;;;2.50;0.80;;;;;;;;;;110180;1279;22175;-88
2023/06/27 16:24:12;;;;;;;3.20;1.10;;;;;;;;;;110430;1257;22131;-91
2023/06/27 16:26:42;;;;;;;2.80;1.20;;;;;;;;;;110192;1279;22092;-87
2023/06/27 16:29:20;;;;;;;3.80;1.00;;;;;;;;;;110396;1279;22093;-92
2023/06/27 16:32:01;;;;;;;3.10;0.90;;;;;;;;;;110192;1279;22123;-92
2023/06/27 16:34:39;;;;;;;5.00;1.30;;;;;;;;;;110417;1256;22157;-91
2023/06/27 16:37:36;;;;;;;;;;;;;;;;;;;;;
2023/06/27 16:40:26;;;;;;;3.60;1.20;;;;;;;;;;110325;1279;22154;-91
2023/06/27 16:42:58;;;;;;;7.70;1.40;;;;;;;;;;110123;1279;22134;-89
2023/06/27 16:55:48;;;;;;;4.30;1.20;;;;;;;;;;104112;1291;544950;-88
2023/06/27 16:58:19;;;;;;;3.70;1.50;;;;;;;;;;106029;1281;24170;-92
2023/06/27 17:00:46;;;;;;;5.10;1.20;;;;;;;;;;106061;1287;24313;-92
2023/06/27 17:03:13;;;;;;;3.60;1.40;;;;;;;;;;106041;1278;24191;-87
2023/06/27 17:05:40;;;;;;;3.80;1.10;;;;;;;;;;105940;1273;22699;-88
2023/06/27 17:08:09;;;;;;;3.60;1.20;;;;;;;;;;104536;1287;3232754;-85
2023/06/27 17:10:41;;;;;;;3.70;1.10;;;;;;;;;;106063;1277;22562;-87
2023/06/27 17:13:08;;;;;;;3.20;1.00;;;;;;;;;;106118;1287;22607;-92
2023/06/27 17:15:40;;;;;;;4.30;1.30;;;;;;;;;;106271;1269;24261;-87
2023/06/27 17:18:08;;;;;;;5.90;1.50;;;;;;;;;;106294;1285;22559;-87
2023/06/27 17:20:38;;;;;;;4.30;1.10;;;;;;;;;;106406;1279;25294;-88
2023/06/27 17:23:17;;;;;;;4.70;1.50;;;;;;;;;;106351;1279;22582;-90
2023/06/27 17:25:47;;;;;;;5.50;1.60;;;;;;;;;;106347;1283;24378;-86
2023/06/27 17:28:15;;;;;;;4.10;1.20;;;;;;;;;;106316;1284;23032;-85
2023/06/27 17:30:45;;;;;;;3.90;0.90;;;;;;;;;;106313;1272;22590;-87
2023/06/27 17:33:25;;;;;;;5.30;1.30;;;;;;;;;;106866;1274;24167;-85
2023/06/27 17:35:58;;;;;;;6.00;1.00;;;;;;;;;;107023;1259;24582;-88
2023/06/27 17:38:27;;;;;;;5.70;1.30;;;;;;;;;;106996;1269;22526;-86
2023/06/27 17:41:03;;;;;;;4.40;1.40;;;;;;;;;;107068;1276;25412;-93
2023/06/27 17:43:31;;;;;;;6.90;1.30;;;;;;;;;;107204;1272;22525;-92
2023/06/27 17:46:00;;;;;;;5.10;1.30;;;;;;;;;;107051;1256;22531;-92
2023/06/27 17:48:31;;;;;;;6.40;1.20;;;;;;;;;;107067;1275;25409;-86
2023/06/27 17:51:04;;;;;;;5.50;1.50;;;;;;;;;;106920;1275;24375;-89
2023/06/27 17:53:32;;;;;;;8.50;1.50;;;;;;;;;;106983;1274;24304;-89
2023/06/27 17:56:09;;;;;;;4.60;1.10;;;;;;;;;;106929;1264;22527;-88
2023/06/27 17:58:39;;;;;;;4.80;1.20;;;;;;;;;;107069;1269;22641;-89
2023/06/27 18:01:07;;;;;;;3.80;1.20;;;;;;;;;;106997;1265;22757;-86
2023/06/27 18:03:40;;;;;;;4.30;1.40;;;;;;;;;;106921;1273;23129;-88
2023/06/27 18:06:10;;;;;;;5.10;1.50;;;;;;;;;;106970;1260;22533;-88
2023/06/27 18:08:40;;;;;;;4.30;1.40;;;;;;;;;;106973;1269;22503;-91
2023/06/27 18:11:07;;;;;;;4.70;1.30;;;;;;;;;;107067;1273;25224;-90
2023/06/27 18:13:38;;;;;;;4.30;1.40;;;;;;;;;;106987;1269;22526;-87
2023/06/27 18:16:06;;;;;;;3.20;1.40;;;;;;;;;;106991;1264;25400;-88
2023/06/27 18:18:38;;;;;;;5.40;1.40;;;;;;;;;;107075;1275;24242;-87
2023/06/27 18:21:05;;;;;;;4.10;1.30;;;;;;;;;;107101;1271;22536;-91
2023/06/27 18:23:32;;;;;;;7.70;1.50;;;;;;;;;;107068;1275;22536;-90
2023/06/27 18:26:02;;;;;;;7.40;1.50;;;;;;;;;;106950;1275;22623;-86
2023/06/27 18:28:30;;;;;;;5.30;1.30;;;;;;;;;;106985;1259;22520;-91
2023/06/27 18:30:58;;;;;;;3.80;1.20;;;;;;;;;;107013;1273;25275;-86
2023/06/27 18:33:25;;;;;;;7.40;1.50;;;;;;;;;;106992;1270;23878;-90
2023/06/27 18:35:59;;;;;;;5.50;1.40;;;;;;;;;;107004;1273;23365;-88
2023/06/27 18:38:33;;;;;;;6.30;1.80;;;;;;;;;;107018;1269;25300;-86
2023/06/27 18:41:05;;;;;;;5.40;1.30;;;;;;;;;;106873;1274;24199;-89
2023/06/27 18:43:32;;;;;;;4.00;1.30;;;;;;;;;;107021;1275;24077;-87
2023/06/27 18:46:02;;;;;;;3.30;1.50;;;;;;;;;;106806;1272;22557;-92
2023/06/27 18:48:30;;;;;;;5.20;1.50;;;;;;;;;;106934;1260;25227;-86
2023/06/27 18:51:03;;;;;;;4.60;1.10;;;;;;;;;;106921;1273;25466;-91
2023/06/27 18:53:33;;;;;;;4.90;1.30;;;;;;;;;;106982;1270;22539;-88
2023/06/27 18:56:00;;;;;;;5.60;1.40;;;;;;;;;;106900;1275;22538;-86
2023/06/27 18:58:35;;;;;;;4.00;1.50;;;;;;;;;;106869;1269;24238;-88
2023/06/27 19:01:13;;;;;;;5.20;1.60;;;;;;;;;;106971;1269;22532;-86
2023/06/27 19:03:49;;;;;;;4.80;1.40;;;;;;;;;;106980;1274;24190;-86
2023/06/27 19:06:28;;;;;;;5.40;1.40;;;;;;;;;;106901;1263;22533;-86
2023/06/27 19:08:55;;;;;;;5.30;1.30;;;;;;;;;;106892;1260;23094;-89
2023/06/27 19:11:26;;;;;;;3.50;1.30;;;;;;;;;;107029;1273;22998;-87
2023/06/27 19:14:03;;;;;;;4.40;1.20;;;;;;;;;;106953;1270;25350;-90
2023/06/27 19:16:30;;;;;;;5.50;1.50;;;;;;;;;;106941;1276;25262;-90